sensor_id;sensor_type;location;lat;lon;timestamp;temperature;humidity
4187;DHT22;2107;52.306;10.484;2023-06-10T00:00:50;15.10;99.90
4187;DHT22;2107;52.306;10.484;2023-06-10T00:03:17;15.00;99.90
4187;DHT22;2107;52.306;10.484;2023-06-10T00:05:44;14.90;99.90
4187;DHT22;2107;52.306;10.484;2023-06-10T00:08:11;14.80;99.90
4187;DHT22;2107;52.306;10.484;2023-06-10T00:10:38;14.70;1.00
4187;DHT22;2107;52.306;10.484;2023-06-10T00:13:06;14.60;1.00
4187;DHT22;2107;52.306;10.484;2023-06-10T00:15:34;14.60;1.00
4187;DHT22;2107;52.306;10.484;2023-06-10T00:18:03;14.50;1.00
4187;DHT22;2107;52.306;10.484;2023-06-10T00:20:31;14.50;1.00
4187;DHT22;2107;52.306;10.484;2023-06-10T00:22:58;14.40;1.00
4187;DHT22;2107;52.306;10.484;2023-06-10T00:25:26;14.40;1.00
4187;DHT22;2107;52.306;10.484;2023-06-10T00:27:54;14.30;1.00
4187;DHT22;2107;52.306;10.484;2023-06-10T00:30:21;14.30;1.00
4187;DHT22;2107;52.306;10.484;2023-06-10T00:32:48;14.20;1.00
4187;DHT22;2107;52.306;10.484;2023-06-10T00:35:16;14.20;2.50
4187;DHT22;2107;52.306;10.484;2023-06-10T00:37:43;14.10;45.40
4187;DHT22;2107;52.306;10.484;2023-06-10T00:40:11;14.10;94.40
4187;DHT22;2107;52.306;10.484;2023-06-10T00:42:38;14.00;99.90
4187;DHT22;2107;52.306;10.484;2023-06-10T00:45:06;13.90;99.90
4187;DHT22;2107;52.306;10.484;2023-06-10T00:47:33;13.80;99.90
4187;DHT22;2107;52.306;10.484;2023-06-10T00:50:01;13.80;99.90
4187;DHT22;2107;52.306;10.484;2023-06-10T00:52:30;13.70;1.00
4187;DHT22;2107;52.306;10.484;2023-06-10T00:54:57;13.70;1.00
4187;DHT22;2107;52.306;10.484;2023-06-10T00:57:25;13.60;49.70
4187;DHT22;2107;52.306;10.484;2023-06-10T00:59:52;13.60;99.90
4187;DHT22;2107;52.306;10.484;2023-06-10T01:02:18;13.60;99.90
4187;DHT22;2107;52.306;10.484;2023-06-10T01:04:45;13.50;99.90
4187;DHT22;2107;52.306;10.484;2023-06-10T01:07:19;13.40;1.00
4187;DHT22;2107;52.306;10.484;2023-06-10T01:09:54;13.40;99.90
4187;DHT22;2107;52.306;10.484;2023-06-10T01:12:29;13.40;99.90
4187;DHT22;2107;52.306;10.484;2023-06-10T01:14:58;13.30;1.00
4187;DHT22;2107;52.306;10.484;2023-06-10T01:17:26;13.20;99.90
4187;DHT22;2107;52.306;10.484;2023-06-10T01:19:54;13.20;21.70
4187;DHT22;2107;52.306;10.484;2023-06-10T01:22:23;13.10;99.90
4187;DHT22;2107;52.306;10.484;2023-06-10T01:24:52;13.10;99.90
4187;DHT22;2107;52.306;10.484;2023-06-10T01:27:21;13.00;99.90
4187;DHT22;2107;52.306;10.484;2023-06-10T01:29:56;13.00;99.90
4187;DHT22;2107;52.306;10.484;2023-06-10T01:32:34;12.90;22.10
4187;DHT22;2107;52.306;10.484;2023-06-10T01:35:05;12.90;1.00
4187;DHT22;2107;52.306;10.484;2023-06-10T01:37:36;12.90;99.90
4187;DHT22;2107;52.306;10.484;2023-06-10T01:40:06;12.80;1.00
4187;DHT22;2107;52.306;10.484;2023-06-10T01:42:34;12.70;99.90
4187;DHT22;2107;52.306;10.484;2023-06-10T01:45:01;12.70;32.50
4187;DHT22;2107;52.306;10.484;2023-06-10T01:47:28;12.70;99.90
4187;DHT22;2107;52.306;10.484;2023-06-10T01:49:55;12.70;1.00
4187;DHT22;2107;52.306;10.484;2023-06-10T01:52:21;12.70;1.00
4187;DHT22;2107;52.306;10.484;2023-06-10T01:54:50;12.70;95.80
4187;DHT22;2107;52.306;10.484;2023-06-10T01:57:17;12.60;99.90
4187;DHT22;2107;52.306;10.484;2023-06-10T01:59:43;12.60;99.90
4187;DHT22;2107;52.306;10.484;2023-06-10T02:02:11;12.50;99.90
4187;DHT22;2107;52.306;10.484;2023-06-10T02:04:38;12.50;99.90
4187;DHT22;2107;52.306;10.484;2023-06-10T02:07:05;12.40;99.90
4187;DHT22;2107;52.306;10.484;2023-06-10T02:09:32;12.50;99.90
4187;DHT22;2107;52.306;10.484;2023-06-10T02:12:02;12.40;99.90
4187;DHT22;2107;52.306;10.484;2023-06-10T02:14:29;12.40;99.90
4187;DHT22;2107;52.306;10.484;2023-06-10T02:16:56;12.40;99.90
4187;DHT22;2107;52.306;10.484;2023-06-10T02:19:23;12.30;99.90
4187;DHT22;2107;52.306;10.484;2023-06-10T02:21:52;12.40;99.90
4187;DHT22;2107;52.306;10.484;2023-06-10T02:24:19;12.30;99.90
4187;DHT22;2107;52.306;10.484;2023-06-10T02:26:46;12.30;99.90
4187;DHT22;2107;52.306;10.484;2023-06-10T02:29:14;12.20;99.90
4187;DHT22;2107;52.306;10.484;2023-06-10T02:31:41;12.30;99.90
4187;DHT22;2107;52.306;10.484;2023-06-10T02:34:08;12.20;99.90
4187;DHT22;2107;52.306;10.484;2023-06-10T02:36:35;12.10;99.90
4187;DHT22;2107;52.306;10.484;2023-06-10T02:39:02;12.10;99.90
4187;DHT22;2107;52.306;10.484;2023-06-10T02:41:29;12.10;99.90
4187;DHT22;2107;52.306;10.484;2023-06-10T02:43:56;12.00;99.90
4187;DHT22;2107;52.306;10.484;2023-06-10T02:46:24;12.10;99.90
4187;DHT22;2107;52.306;10.484;2023-06-10T02:48:51;12.10;99.90
4187;DHT22;2107;52.306;10.484;2023-06-10T02:51:18;12.00;99.90
4187;DHT22;2107;52.306;10.484;2023-06-10T02:53:47;12.00;99.90
4187;DHT22;2107;52.306;10.484;2023-06-10T02:56:16;12.00;99.90
4187;DHT22;2107;52.306;10.484;2023-06-10T02:58:43;11.90;99.90
4187;DHT22;2107;52.306;10.484;2023-06-10T03:01:10;11.90;99.90
4187;DHT22;2107;52.306;10.484;2023-06-10T03:03:38;11.80;99.90
4187;DHT22;2107;52.306;10.484;2023-06-10T03:06:08;11.80;99.90
4187;DHT22;2107;52.306;10.484;2023-06-10T03:08:35;11.80;99.90
4187;DHT22;2107;52.306;10.484;2023-06-10T03:11:02;11.80;99.90
4187;DHT22;2107;52.306;10.484;2023-06-10T03:13:29;11.80;99.90
4187;DHT22;2107;52.306;10.484;2023-06-10T03:15:56;11.90;99.90
4187;DHT22;2107;52.306;10.484;2023-06-10T03:18:27;11.90;99.90
4187;DHT22;2107;52.306;10.484;2023-06-10T03:20:56;11.90;99.90
4187;DHT22;2107;52.306;10.484;2023-06-10T03:23:23;11.80;99.90
4187;DHT22;2107;52.306;10.484;2023-06-10T03:25:50;11.80;99.90
4187;DHT22;2107;52.306;10.484;2023-06-10T03:28:16;11.80;99.90
4187;DHT22;2107;52.306;10.484;2023-06-10T03:30:43;11.80;99.90
4187;DHT22;2107;52.306;10.484;2023-06-10T03:33:10;11.80;99.90
4187;DHT22;2107;52.306;10.484;2023-06-10T03:35:37;11.80;99.90
4187;DHT22;2107;52.306;10.484;2023-06-10T03:38:05;11.90;99.90
4187;DHT22;2107;52.306;10.484;2023-06-10T03:40:32;11.90;99.90
4187;DHT22;2107;52.306;10.484;2023-06-10T03:43:00;11.90;99.90
4187;DHT22;2107;52.306;10.484;2023-06-10T03:45:26;12.20;99.90
4187;DHT22;2107;52.306;10.484;2023-06-10T03:47:54;11.90;99.90
4187;DHT22;2107;52.306;10.484;2023-06-10T03:50:22;11.90;99.90
4187;DHT22;2107;52.306;10.484;2023-06-10T03:52:50;12.00;99.90
4187;DHT22;2107;52.306;10.484;2023-06-10T03:55:18;12.10;99.90
4187;DHT22;2107;52.306;10.484;2023-06-10T03:57:47;12.20;99.90
4187;DHT22;2107;52.306;10.484;2023-06-10T04:00:15;12.20;99.90
4187;DHT22;2107;52.306;10.484;2023-06-10T04:02:43;12.40;99.90
4187;DHT22;2107;52.306;10.484;2023-06-10T04:05:13;12.60;99.90
4187;DHT22;2107;52.306;10.484;2023-06-10T04:07:40;12.70;99.90
4187;DHT22;2107;52.306;10.484;2023-06-10T04:10:08;13.00;99.90
4187;DHT22;2107;52.306;10.484;2023-06-10T04:12:37;13.20;99.90
4187;DHT22;2107;52.306;10.484;2023-06-10T04:15:05;13.60;99.90
4187;DHT22;2107;52.306;10.484;2023-06-10T04:17:32;13.80;99.90
4187;DHT22;2107;52.306;10.484;2023-06-10T04:19:59;13.90;99.90
4187;DHT22;2107;52.306;10.484;2023-06-10T04:22:26;14.10;99.90
4187;DHT22;2107;52.306;10.484;2023-06-10T04:24:53;14.50;99.90
4187;DHT22;2107;52.306;10.484;2023-06-10T04:27:20;14.70;99.90
4187;DHT22;2107;52.306;10.484;2023-06-10T04:29:48;14.70;99.90
4187;DHT22;2107;52.306;10.484;2023-06-10T04:32:15;14.80;99.90
4187;DHT22;2107;52.306;10.484;2023-06-10T04:34:42;14.60;99.90
4187;DHT22;2107;52.306;10.484;2023-06-10T04:37:09;14.70;99.90
4187;DHT22;2107;52.306;10.484;2023-06-10T04:39:36;14.90;99.90
4187;DHT22;2107;52.306;10.484;2023-06-10T04:42:03;14.90;99.90
4187;DHT22;2107;52.306;10.484;2023-06-10T04:44:30;14.70;99.90
4187;DHT22;2107;52.306;10.484;2023-06-10T04:46:59;14.90;99.90
4187;DHT22;2107;52.306;10.484;2023-06-10T04:49:26;14.80;99.90
4187;DHT22;2107;52.306;10.484;2023-06-10T04:51:52;14.90;99.90
4187;DHT22;2107;52.306;10.484;2023-06-10T04:54:19;14.90;99.90
4187;DHT22;2107;52.306;10.484;2023-06-10T04:56:46;14.80;99.90
4187;DHT22;2107;52.306;10.484;2023-06-10T04:59:13;14.60;99.90
4187;DHT22;2107;52.306;10.484;2023-06-10T05:01:40;14.70;99.90
4187;DHT22;2107;52.306;10.484;2023-06-10T05:04:08;14.40;99.90
4187;DHT22;2107;52.306;10.484;2023-06-10T05:06:35;14.20;99.90
4187;DHT22;2107;52.306;10.484;2023-06-10T05:09:02;14.40;99.90
4187;DHT22;2107;52.306;10.484;2023-06-10T05:11:29;14.30;99.90
4187;DHT22;2107;52.306;10.484;2023-06-10T05:13:56;14.20;99.90
4187;DHT22;2107;52.306;10.484;2023-06-10T05:16:23;14.30;99.90
4187;DHT22;2107;52.306;10.484;2023-06-10T05:18:50;14.30;99.90
4187;DHT22;2107;52.306;10.484;2023-06-10T05:21:19;14.30;99.90
4187;DHT22;2107;52.306;10.484;2023-06-10T05:23:46;14.50;99.90
4187;DHT22;2107;52.306;10.484;2023-06-10T05:26:13;14.50;99.90
4187;DHT22;2107;52.306;10.484;2023-06-10T05:28:40;14.70;99.90
4187;DHT22;2107;52.306;10.484;2023-06-10T05:31:07;15.00;99.90
4187;DHT22;2107;52.306;10.484;2023-06-10T05:33:33;15.10;99.90
4187;DHT22;2107;52.306;10.484;2023-06-10T05:36:00;15.40;99.90
4187;DHT22;2107;52.306;10.484;2023-06-10T05:38:29;15.40;99.90
4187;DHT22;2107;52.306;10.484;2023-06-10T05:40:55;15.50;99.90
4187;DHT22;2107;52.306;10.484;2023-06-10T05:43:24;15.20;99.90
4187;DHT22;2107;52.306;10.484;2023-06-10T05:45:51;15.60;99.90
4187;DHT22;2107;52.306;10.484;2023-06-10T05:48:18;16.00;99.90
4187;DHT22;2107;52.306;10.484;2023-06-10T05:50:45;16.40;99.90
4187;DHT22;2107;52.306;10.484;2023-06-10T05:53:13;16.80;99.90
4187;DHT22;2107;52.306;10.484;2023-06-10T05:55:43;17.10;99.90
4187;DHT22;2107;52.306;10.484;2023-06-10T05:58:11;17.40;99.90
4187;DHT22;2107;52.306;10.484;2023-06-10T06:00:38;17.60;99.90
4187;DHT22;2107;52.306;10.484;2023-06-10T06:03:06;17.20;99.90
4187;DHT22;2107;52.306;10.484;2023-06-10T06:05:33;17.80;99.90
4187;DHT22;2107;52.306;10.484;2023-06-10T06:08:02;18.40;99.90
4187;DHT22;2107;52.306;10.484;2023-06-10T06:10:29;19.10;99.90
4187;DHT22;2107;52.306;10.484;2023-06-10T06:12:58;19.50;99.90
4187;DHT22;2107;52.306;10.484;2023-06-10T06:15:25;20.10;99.90
4187;DHT22;2107;52.306;10.484;2023-06-10T06:17:51;20.40;99.90
4187;DHT22;2107;52.306;10.484;2023-06-10T06:20:18;20.70;99.90
4187;DHT22;2107;52.306;10.484;2023-06-10T06:22:46;21.00;99.90
4187;DHT22;2107;52.306;10.484;2023-06-10T06:25:13;20.40;99.90
4187;DHT22;2107;52.306;10.484;2023-06-10T06:27:40;20.90;99.90
4187;DHT22;2107;52.306;10.484;2023-06-10T06:30:09;20.90;99.90
4187;DHT22;2107;52.306;10.484;2023-06-10T06:32:37;21.80;99.90
4187;DHT22;2107;52.306;10.484;2023-06-10T06:35:04;22.30;99.90
4187;DHT22;2107;52.306;10.484;2023-06-10T06:37:33;22.10;99.90
4187;DHT22;2107;52.306;10.484;2023-06-10T06:40:01;22.40;99.90
4187;DHT22;2107;52.306;10.484;2023-06-10T06:42:29;22.00;99.90
4187;DHT22;2107;52.306;10.484;2023-06-10T06:44:55;22.50;99.90
4187;DHT22;2107;52.306;10.484;2023-06-10T06:47:24;22.90;99.90
4187;DHT22;2107;52.306;10.484;2023-06-10T06:49:52;22.50;99.90
4187;DHT22;2107;52.306;10.484;2023-06-10T06:52:19;22.90;99.90
4187;DHT22;2107;52.306;10.484;2023-06-10T06:54:46;23.40;99.90
4187;DHT22;2107;52.306;10.484;2023-06-10T06:57:12;23.70;99.90
4187;DHT22;2107;52.306;10.484;2023-06-10T06:59:39;24.00;99.90
4187;DHT22;2107;52.306;10.484;2023-06-10T07:02:06;23.90;99.90
4187;DHT22;2107;52.306;10.484;2023-06-10T07:04:35;23.90;99.90
4187;DHT22;2107;52.306;10.484;2023-06-10T07:07:02;24.00;99.90
4187;DHT22;2107;52.306;10.484;2023-06-10T07:09:32;24.00;99.90
4187;DHT22;2107;52.306;10.484;2023-06-10T07:11:58;23.80;99.90
4187;DHT22;2107;52.306;10.484;2023-06-10T07:14:26;24.30;99.90
4187;DHT22;2107;52.306;10.484;2023-06-10T07:16:53;24.70;99.90
4187;DHT22;2107;52.306;10.484;2023-06-10T07:19:20;24.60;99.90
4187;DHT22;2107;52.306;10.484;2023-06-10T07:21:48;24.50;99.80
4187;DHT22;2107;52.306;10.484;2023-06-10T07:24:15;24.60;99.50
4187;DHT22;2107;52.306;10.484;2023-06-10T07:26:42;24.90;99.60
4187;DHT22;2107;52.306;10.484;2023-06-10T07:29:09;25.30;99.40
4187;DHT22;2107;52.306;10.484;2023-06-10T07:31:36;25.80;98.10
4187;DHT22;2107;52.306;10.484;2023-06-10T07:34:03;25.20;97.30
4187;DHT22;2107;52.306;10.484;2023-06-10T07:36:30;24.90;97.50
4187;DHT22;2107;52.306;10.484;2023-06-10T07:38:58;25.00;97.60
4187;DHT22;2107;52.306;10.484;2023-06-10T07:41:25;24.40;97.70
4187;DHT22;2107;52.306;10.484;2023-06-10T07:43:53;24.10;98.80
4187;DHT22;2107;52.306;10.484;2023-06-10T07:46:21;24.50;98.80
4187;DHT22;2107;52.306;10.484;2023-06-10T07:48:48;24.80;98.20
4187;DHT22;2107;52.306;10.484;2023-06-10T07:51:16;25.40;98.00
4187;DHT22;2107;52.306;10.484;2023-06-10T07:53:43;25.40;96.90
4187;DHT22;2107;52.306;10.484;2023-06-10T07:56:11;25.40;97.10
4187;DHT22;2107;52.306;10.484;2023-06-10T07:58:38;24.80;96.80
4187;DHT22;2107;52.306;10.484;2023-06-10T08:01:05;25.10;97.30
4187;DHT22;2107;52.306;10.484;2023-06-10T08:03:32;23.30;99.00
4187;DHT22;2107;52.306;10.484;2023-06-10T08:05:59;23.70;99.40
4187;DHT22;2107;52.306;10.484;2023-06-10T08:08:26;24.30;99.10
4187;DHT22;2107;52.306;10.484;2023-06-10T08:10:53;24.70;98.30
4187;DHT22;2107;52.306;10.484;2023-06-10T08:13:21;25.00;97.70
4187;DHT22;2107;52.306;10.484;2023-06-10T08:15:48;25.10;97.50
4187;DHT22;2107;52.306;10.484;2023-06-10T08:18:16;25.00;97.20
4187;DHT22;2107;52.306;10.484;2023-06-10T08:20:43;25.30;97.40
4187;DHT22;2107;52.306;10.484;2023-06-10T08:23:10;24.40;96.10
4187;DHT22;2107;52.306;10.484;2023-06-10T08:25:37;23.20;98.90
4187;DHT22;2107;52.306;10.484;2023-06-10T08:28:03;23.40;99.80
4187;DHT22;2107;52.306;10.484;2023-06-10T08:30:32;23.20;99.90
4187;DHT22;2107;52.306;10.484;2023-06-10T08:32:59;24.10;99.90
4187;DHT22;2107;52.306;10.484;2023-06-10T08:35:26;24.80;99.00
4187;DHT22;2107;52.306;10.484;2023-06-10T08:37:53;25.40;98.00
4187;DHT22;2107;52.306;10.484;2023-06-10T08:40:20;25.80;97.80
4187;DHT22;2107;52.306;10.484;2023-06-10T08:42:53;26.20;96.60
4187;DHT22;2107;52.306;10.484;2023-06-10T08:45:24;26.40;96.10
4187;DHT22;2107;52.306;10.484;2023-06-10T08:47:56;26.60;95.80
4187;DHT22;2107;52.306;10.484;2023-06-10T08:50:24;26.20;95.80
4187;DHT22;2107;52.306;10.484;2023-06-10T08:52:54;26.30;95.30
4187;DHT22;2107;52.306;10.484;2023-06-10T08:55:29;25.80;95.50
4187;DHT22;2107;52.306;10.484;2023-06-10T08:57:57;25.90;95.80
4187;DHT22;2107;52.306;10.484;2023-06-10T09:00:26;26.10;95.80
4187;DHT22;2107;52.306;10.484;2023-06-10T09:02:54;26.70;95.00
4187;DHT22;2107;52.306;10.484;2023-06-10T09:05:22;26.60;94.50
4187;DHT22;2107;52.306;10.484;2023-06-10T09:07:49;26.50;94.70
4187;DHT22;2107;52.306;10.484;2023-06-10T09:10:18;26.00;95.00
4187;DHT22;2107;52.306;10.484;2023-06-10T09:12:45;24.30;95.90
4187;DHT22;2107;52.306;10.484;2023-06-10T09:15:11;25.60;97.40
4187;DHT22;2107;52.306;10.484;2023-06-10T09:17:40;25.30;96.30
4187;DHT22;2107;52.306;10.484;2023-06-10T09:20:10;26.00;96.30
4187;DHT22;2107;52.306;10.484;2023-06-10T09:22:37;27.00;95.10
4187;DHT22;2107;52.306;10.484;2023-06-10T09:25:08;27.60;94.30
4187;DHT22;2107;52.306;10.484;2023-06-10T09:27:44;28.20;94.00
4187;DHT22;2107;52.306;10.484;2023-06-10T09:30:24;28.50;92.70
4187;DHT22;2107;52.306;10.484;2023-06-10T09:32:53;28.20;92.40
4187;DHT22;2107;52.306;10.484;2023-06-10T09:35:23;27.50;92.40
4187;DHT22;2107;52.306;10.484;2023-06-10T09:37:51;28.00;92.20
4187;DHT22;2107;52.306;10.484;2023-06-10T09:40:18;27.90;92.30
4187;DHT22;2107;52.306;10.484;2023-06-10T09:42:45;28.40;92.00
4187;DHT22;2107;52.306;10.484;2023-06-10T09:45:19;26.80;91.20
4187;DHT22;2107;52.306;10.484;2023-06-10T09:47:46;28.10;92.00
4187;DHT22;2107;52.306;10.484;2023-06-10T09:50:13;28.70;91.40
4187;DHT22;2107;52.306;10.484;2023-06-10T09:52:41;29.10;90.40
4187;DHT22;2107;52.306;10.484;2023-06-10T09:55:09;29.60;89.80
4187;DHT22;2107;52.306;10.484;2023-06-10T09:57:36;27.10;87.90
4187;DHT22;2107;52.306;10.484;2023-06-10T10:00:05;27.70;90.90
4187;DHT22;2107;52.306;10.484;2023-06-10T10:02:44;28.50;90.60
4187;DHT22;2107;52.306;10.484;2023-06-10T10:05:13;28.60;90.20
4187;DHT22;2107;52.306;10.484;2023-06-10T10:07:42;29.00;90.20
4187;DHT22;2107;52.306;10.484;2023-06-10T10:10:10;29.80;88.00
4187;DHT22;2107;52.306;10.484;2023-06-10T10:12:38;29.80;86.90
4187;DHT22;2107;52.306;10.484;2023-06-10T10:15:06;29.10;84.70
4187;DHT22;2107;52.306;10.484;2023-06-10T10:17:35;29.50;87.20
4187;DHT22;2107;52.306;10.484;2023-06-10T10:20:05;30.00;84.90
4187;DHT22;2107;52.306;10.484;2023-06-10T10:22:37;30.40;83.80
4187;DHT22;2107;52.306;10.484;2023-06-10T10:25:10;29.30;83.20
4187;DHT22;2107;52.306;10.484;2023-06-10T10:27:44;29.90;84.30
4187;DHT22;2107;52.306;10.484;2023-06-10T10:30:12;30.50;80.10
4187;DHT22;2107;52.306;10.484;2023-06-10T10:32:45;30.30;78.80
4187;DHT22;2107;52.306;10.484;2023-06-10T10:35:17;30.00;79.50
4187;DHT22;2107;52.306;10.484;2023-06-10T10:37:44;30.50;77.80
4187;DHT22;2107;52.306;10.484;2023-06-10T10:40:13;30.20;76.60
4187;DHT22;2107;52.306;10.484;2023-06-10T10:42:41;30.20;78.10
4187;DHT22;2107;52.306;10.484;2023-06-10T10:45:09;30.80;77.60
4187;DHT22;2107;52.306;10.484;2023-06-10T10:47:36;30.70;76.10
4187;DHT22;2107;52.306;10.484;2023-06-10T10:50:13;31.40;75.10
4187;DHT22;2107;52.306;10.484;2023-06-10T10:52:51;30.10;74.90
4187;DHT22;2107;52.306;10.484;2023-06-10T10:55:19;31.00;74.20
4187;DHT22;2107;52.306;10.484;2023-06-10T10:57:54;31.50;74.60
4187;DHT22;2107;52.306;10.484;2023-06-10T11:00:28;31.80;73.70
4187;DHT22;2107;52.306;10.484;2023-06-10T11:03:04;31.70;72.00
4187;DHT22;2107;52.306;10.484;2023-06-10T11:05:36;30.80;72.40
4187;DHT22;2107;52.306;10.484;2023-06-10T11:08:05;31.10;72.90
4187;DHT22;2107;52.306;10.484;2023-06-10T11:10:34;30.70;74.00
4187;DHT22;2107;52.306;10.484;2023-06-10T11:13:05;29.60;76.70
4187;DHT22;2107;52.306;10.484;2023-06-10T11:15:33;29.90;72.90
4187;DHT22;2107;52.306;10.484;2023-06-10T11:18:12;28.30;76.10
4187;DHT22;2107;52.306;10.484;2023-06-10T11:20:58;29.10;74.90
4187;DHT22;2107;52.306;10.484;2023-06-10T11:23:30;30.10;74.80
4187;DHT22;2107;52.306;10.484;2023-06-10T11:26:21;29.70;72.40
4187;DHT22;2107;52.306;10.484;2023-06-10T11:29:07;29.80;73.20
4187;DHT22;2107;52.306;10.484;2023-06-10T11:31:45;29.10;73.00
4187;DHT22;2107;52.306;10.484;2023-06-10T11:34:13;29.40;74.90
4187;DHT22;2107;52.306;10.484;2023-06-10T11:36:40;28.60;75.60
4187;DHT22;2107;52.306;10.484;2023-06-10T11:39:09;29.30;75.70
4187;DHT22;2107;52.306;10.484;2023-06-10T11:41:37;29.20;74.70
4187;DHT22;2107;52.306;10.484;2023-06-10T11:44:08;29.90;73.90
4187;DHT22;2107;52.306;10.484;2023-06-10T11:46:35;30.70;71.90
4187;DHT22;2107;52.306;10.484;2023-06-10T11:49:03;30.10;71.00
4187;DHT22;2107;52.306;10.484;2023-06-10T11:51:33;30.60;71.30
4187;DHT22;2107;52.306;10.484;2023-06-10T11:54:01;29.80;69.70
4187;DHT22;2107;52.306;10.484;2023-06-10T11:56:29;29.50;70.70
4187;DHT22;2107;52.306;10.484;2023-06-10T11:58:59;28.30;72.90
4187;DHT22;2107;52.306;10.484;2023-06-10T12:01:30;29.40;74.20
4187;DHT22;2107;52.306;10.484;2023-06-10T12:03:58;30.10;71.20
4187;DHT22;2107;52.306;10.484;2023-06-10T12:06:25;30.50;71.00
4187;DHT22;2107;52.306;10.484;2023-06-10T12:08:53;28.20;70.30
4187;DHT22;2107;52.306;10.484;2023-06-10T12:11:21;28.60;74.00
4187;DHT22;2107;52.306;10.484;2023-06-10T12:13:49;28.80;72.30
4187;DHT22;2107;52.306;10.484;2023-06-10T12:16:17;29.10;72.80
4187;DHT22;2107;52.306;10.484;2023-06-10T12:18:46;29.80;72.10
4187;DHT22;2107;52.306;10.484;2023-06-10T12:21:18;29.30;71.70
4187;DHT22;2107;52.306;10.484;2023-06-10T12:24:06;29.70;71.80
4187;DHT22;2107;52.306;10.484;2023-06-10T12:26:41;29.20;70.40
4187;DHT22;2107;52.306;10.484;2023-06-10T12:29:21;30.20;71.50
4187;DHT22;2107;52.306;10.484;2023-06-10T12:31:58;31.10;68.50
4187;DHT22;2107;52.306;10.484;2023-06-10T12:34:30;31.90;67.40
4187;DHT22;2107;52.306;10.484;2023-06-10T12:36:57;30.50;65.80
4187;DHT22;2107;52.306;10.484;2023-06-10T12:39:24;29.60;67.60
4187;DHT22;2107;52.306;10.484;2023-06-10T12:41:51;28.00;68.50
4187;DHT22;2107;52.306;10.484;2023-06-10T12:44:18;28.80;69.40
4187;DHT22;2107;52.306;10.484;2023-06-10T12:46:54;29.50;68.90
4187;DHT22;2107;52.306;10.484;2023-06-10T12:49:22;29.10;68.80
4187;DHT22;2107;52.306;10.484;2023-06-10T12:51:50;29.70;68.30
4187;DHT22;2107;52.306;10.484;2023-06-10T12:54:17;30.70;69.40
4187;DHT22;2107;52.306;10.484;2023-06-10T12:56:44;32.40;63.70
4187;DHT22;2107;52.306;10.484;2023-06-10T12:59:11;32.70;59.40
4187;DHT22;2107;52.306;10.484;2023-06-10T13:01:38;34.30;59.40
4187;DHT22;2107;52.306;10.484;2023-06-10T13:04:05;35.30;55.60
4187;DHT22;2107;52.306;10.484;2023-06-10T13:06:34;33.60;53.90
4187;DHT22;2107;52.306;10.484;2023-06-10T13:09:05;30.30;57.60
4187;DHT22;2107;52.306;10.484;2023-06-10T13:11:34;29.70;59.70
4187;DHT22;2107;52.306;10.484;2023-06-10T13:14:01;32.00;58.80
4187;DHT22;2107;52.306;10.484;2023-06-10T13:16:30;33.90;56.10
4187;DHT22;2107;52.306;10.484;2023-06-10T13:18:57;36.10;53.10
4187;DHT22;2107;52.306;10.484;2023-06-10T13:21:24;36.60;49.90
4187;DHT22;2107;52.306;10.484;2023-06-10T13:23:52;36.60;45.80
4187;DHT22;2107;52.306;10.484;2023-06-10T13:26:19;36.50;99.90
4187;DHT22;2107;52.306;10.484;2023-06-10T13:28:47;37.00;99.90
4187;DHT22;2107;52.306;10.484;2023-06-10T13:31:14;36.00;99.90
4187;DHT22;2107;52.306;10.484;2023-06-10T13:33:41;36.00;99.90
4187;DHT22;2107;52.306;10.484;2023-06-10T13:36:09;33.90;99.90
4187;DHT22;2107;52.306;10.484;2023-06-10T13:38:36;33.20;99.90
4187;DHT22;2107;52.306;10.484;2023-06-10T13:41:04;34.20;99.90
4187;DHT22;2107;52.306;10.484;2023-06-10T13:43:31;31.60;99.90
4187;DHT22;2107;52.306;10.484;2023-06-10T13:45:58;34.20;99.90
4187;DHT22;2107;52.306;10.484;2023-06-10T13:48:25;35.70;99.90
4187;DHT22;2107;52.306;10.484;2023-06-10T13:50:52;36.10;99.90
4187;DHT22;2107;52.306;10.484;2023-06-10T13:53:19;36.90;99.90
4187;DHT22;2107;52.306;10.484;2023-06-10T13:55:46;37.40;99.90
4187;DHT22;2107;52.306;10.484;2023-06-10T13:58:14;36.80;99.90
4187;DHT22;2107;52.306;10.484;2023-06-10T14:00:41;34.00;99.90
4187;DHT22;2107;52.306;10.484;2023-06-10T14:03:08;33.30;99.90
4187;DHT22;2107;52.306;10.484;2023-06-10T14:05:35;34.00;99.90
4187;DHT22;2107;52.306;10.484;2023-06-10T14:08:01;36.20;99.90
4187;DHT22;2107;52.306;10.484;2023-06-10T14:10:28;37.00;99.90
4187;DHT22;2107;52.306;10.484;2023-06-10T14:12:55;35.60;99.90
4187;DHT22;2107;52.306;10.484;2023-06-10T14:15:23;37.10;1.00
4187;DHT22;2107;52.306;10.484;2023-06-10T14:17:50;36.10;99.90
4187;DHT22;2107;52.306;10.484;2023-06-10T14:20:17;35.60;99.90
4187;DHT22;2107;52.306;10.484;2023-06-10T14:22:44;35.90;99.90
4187;DHT22;2107;52.306;10.484;2023-06-10T14:25:11;34.40;99.90
4187;DHT22;2107;52.306;10.484;2023-06-10T14:27:38;34.50;99.90
4187;DHT22;2107;52.306;10.484;2023-06-10T14:30:06;36.70;99.90
4187;DHT22;2107;52.306;10.484;2023-06-10T14:32:34;39.30;1.00
4187;DHT22;2107;52.306;10.484;2023-06-10T14:35:01;37.40;99.90
4187;DHT22;2107;52.306;10.484;2023-06-10T14:37:28;35.70;99.90
4187;DHT22;2107;52.306;10.484;2023-06-10T14:39:55;35.50;99.90
4187;DHT22;2107;52.306;10.484;2023-06-10T14:42:22;34.10;99.90
4187;DHT22;2107;52.306;10.484;2023-06-10T14:44:49;32.50;99.90
4187;DHT22;2107;52.306;10.484;2023-06-10T14:47:16;31.80;99.90
4187;DHT22;2107;52.306;10.484;2023-06-10T14:49:44;29.60;99.90
4187;DHT22;2107;52.306;10.484;2023-06-10T14:52:11;29.30;99.90
4187;DHT22;2107;52.306;10.484;2023-06-10T14:54:38;31.00;99.90
4187;DHT22;2107;52.306;10.484;2023-06-10T14:57:05;33.10;99.90
4187;DHT22;2107;52.306;10.484;2023-06-10T14:59:33;35.70;99.90
4187;DHT22;2107;52.306;10.484;2023-06-10T15:02:00;34.20;99.90
4187;DHT22;2107;52.306;10.484;2023-06-10T15:04:27;35.30;99.90
4187;DHT22;2107;52.306;10.484;2023-06-10T15:06:55;35.30;99.90
4187;DHT22;2107;52.306;10.484;2023-06-10T15:09:22;36.60;99.90
4187;DHT22;2107;52.306;10.484;2023-06-10T15:11:49;35.80;99.90
4187;DHT22;2107;52.306;10.484;2023-06-10T15:14:16;36.90;99.90
4187;DHT22;2107;52.306;10.484;2023-06-10T15:16:43;38.40;99.90
4187;DHT22;2107;52.306;10.484;2023-06-10T15:19:10;39.30;1.00
4187;DHT22;2107;52.306;10.484;2023-06-10T15:21:37;38.30;99.90
4187;DHT22;2107;52.306;10.484;2023-06-10T15:24:06;37.70;99.90
4187;DHT22;2107;52.306;10.484;2023-06-10T15:26:33;36.10;99.90
4187;DHT22;2107;52.306;10.484;2023-06-10T15:29:00;33.40;99.90
4187;DHT22;2107;52.306;10.484;2023-06-10T15:31:29;31.90;99.90
4187;DHT22;2107;52.306;10.484;2023-06-10T15:33:57;30.80;99.90
4187;DHT22;2107;52.306;10.484;2023-06-10T15:36:24;30.10;99.90
4187;DHT22;2107;52.306;10.484;2023-06-10T15:38:51;29.60;99.90
4187;DHT22;2107;52.306;10.484;2023-06-10T15:41:19;29.30;99.90
4187;DHT22;2107;52.306;10.484;2023-06-10T15:43:47;29.10;99.90
4187;DHT22;2107;52.306;10.484;2023-06-10T15:46:13;28.90;99.90
4187;DHT22;2107;52.306;10.484;2023-06-10T15:48:40;28.70;99.90
4187;DHT22;2107;52.306;10.484;2023-06-10T15:51:07;28.30;99.90
4187;DHT22;2107;52.306;10.484;2023-06-10T15:53:34;27.20;99.90